createdAt,value
2023-05-06T00:01:07.919Z,97670.56
2023-05-06T00:05:12.180Z,97665.91
2023-05-06T00:09:16.452Z,97659.19
2023-05-06T00:13:21.747Z,97656.75
2023-05-06T00:17:25.112Z,97663.03
2023-05-06T00:21:29.377Z,97652.28
2023-05-06T00:25:33.095Z,97635.28
2023-05-06T00:29:38.324Z,97652.47
2023-05-06T00:33:41.580Z,97646.38
2023-05-06T00:37:47.455Z,97643.56
2023-05-06T00:41:50.930Z,97646.16
2023-05-06T00:45:56.640Z,97647.75
2023-05-06T00:50:00.050Z,97643.28
2023-05-06T00:54:04.893Z,97632.75
2023-05-06T00:58:08.888Z,97625.81
2023-05-06T01:02:14.089Z,97625.41
2023-05-06T01:06:23.952Z,97627.44
2023-05-06T01:10:33.556Z,97625.38
2023-05-06T01:14:43.672Z,97631.22
2023-05-06T01:18:50.978Z,97628.94
2023-05-06T01:22:55.251Z,97626.69
2023-05-06T01:27:00.281Z,97628.09
2023-05-06T01:31:10.717Z,97620.22
2023-05-06T01:35:22.549Z,97611.75
2023-05-06T01:39:28.493Z,97614.13
2023-05-06T01:43:39.538Z,97608.25
2023-05-06T01:47:43.638Z,97614.94
2023-05-06T01:51:49.835Z,97608.88
2023-05-06T01:55:53.015Z,97611.50
2023-05-06T01:59:58.212Z,97618.75
2023-05-06T02:04:02.232Z,97617.78
2023-05-06T02:08:05.889Z,97614.50
2023-05-06T02:12:09.683Z,97606.03
2023-05-06T02:16:14.572Z,97600.78
2023-05-06T02:20:18.349Z,97608.03
2023-05-06T02:24:21.724Z,97613.28
2023-05-06T02:28:25.395Z,97599.91
2023-05-06T02:32:30.591Z,97607.78
2023-05-06T02:36:33.877Z,97602.94
2023-05-06T02:40:37.623Z,97594.44
2023-05-06T02:44:41.169Z,97599.69
2023-05-06T02:48:46.404Z,97596.22
2023-05-06T02:52:49.677Z,97603.09
2023-05-06T02:56:53.092Z,97595.81
2023-05-06T03:00:56.661Z,97602.06
2023-05-06T03:05:02.123Z,97593.41
2023-05-06T03:09:05.463Z,97587.69
2023-05-06T03:13:08.788Z,97600.25
2023-05-06T03:17:12.060Z,97596.97
2023-05-06T03:21:17.535Z,97590.50
2023-05-06T03:25:21.414Z,97595.50
2023-05-06T03:29:24.989Z,97587.59
2023-05-06T03:33:28.220Z,97587.53
2023-05-06T03:37:33.473Z,97598.44
2023-05-06T03:41:37.216Z,97589.31
2023-05-06T03:45:40.669Z,97595.94
2023-05-06T03:49:44.486Z,97595.72
2023-05-06T03:53:49.421Z,97595.13
2023-05-06T03:57:53.376Z,97607.47
2023-05-06T04:01:57.106Z,97601.19
2023-05-06T04:06:00.718Z,97608.88
2023-05-06T04:10:06.469Z,97608.06
2023-05-06T04:14:09.878Z,97616.59
2023-05-06T04:18:19.479Z,97621.91
2023-05-06T04:22:23.086Z,97622.78
2023-05-06T04:26:28.416Z,97626.88
2023-05-06T04:30:31.794Z,97634.41
2023-05-06T04:34:36.494Z,97635.06
2023-05-06T04:38:40.043Z,97632.09
2023-05-06T04:42:44.948Z,97636.19
2023-05-06T04:46:49.780Z,97645.56
2023-05-06T04:50:53.349Z,97640.34
2023-05-06T04:54:56.797Z,97648.06
2023-05-06T04:59:01.763Z,97651.53
2023-05-06T05:03:05.608Z,97657.63
2023-05-06T05:07:09.240Z,97654.81
2023-05-06T05:11:12.757Z,97661.94
2023-05-06T05:15:17.689Z,97647.81
2023-05-06T05:19:21.653Z,97656.53
2023-05-06T05:23:24.875Z,97653.50
2023-05-06T05:27:28.280Z,97650.06
2023-05-06T05:31:33.543Z,97655.38
2023-05-06T05:35:36.944Z,97662.13
2023-05-06T05:39:40.674Z,97668.81
2023-05-06T05:43:44.454Z,97659.88
2023-05-06T05:47:51.179Z,97665.59
2023-05-06T05:51:54.839Z,97667.19
2023-05-06T05:55:58.184Z,97670.84
2023-05-06T06:00:02.085Z,97672.06
2023-05-06T06:04:07.224Z,97664.28
2023-05-06T06:08:11.568Z,97669.81
2023-05-06T06:12:15.362Z,97670.44
2023-05-06T06:16:19.098Z,97674.22
2023-05-06T06:20:24.479Z,97675.97
2023-05-06T06:24:27.925Z,97673.69
2023-05-06T06:28:31.736Z,97680.22
2023-05-06T06:32:35.184Z,97678.09
2023-05-06T06:36:45.534Z,97675.34
2023-05-06T06:40:49.683Z,97677.81
2023-05-06T06:44:54.306Z,97679.50
2023-05-06T06:48:57.606Z,97681.16
2023-05-06T06:53:04.790Z,97685.25
2023-05-06T06:57:09.945Z,97689.41
2023-05-06T07:01:13.420Z,97684.84
2023-05-06T07:05:17.749Z,97673.16
2023-05-06T07:09:22.813Z,97685.38
2023-05-06T07:13:26.295Z,97682.31
2023-05-06T07:17:29.572Z,97690.97
2023-05-06T07:21:33.369Z,97684.50
2023-05-06T07:25:38.547Z,97685.56
2023-05-06T07:29:42.082Z,97681.84
2023-05-06T07:33:45.159Z,97687.28
2023-05-06T07:37:48.698Z,97688.25
2023-05-06T07:41:54.292Z,97699.00
2023-05-06T07:46:03.412Z,97697.16
2023-05-06T07:50:07.513Z,97693.44
2023-05-06T07:54:11.536Z,97693.06
2023-05-06T07:58:16.543Z,97695.81
2023-05-06T08:02:20.091Z,97692.88
2023-05-06T08:06:23.963Z,97697.97
2023-05-06T08:10:27.719Z,97702.91
2023-05-06T08:14:33.384Z,97699.16
2023-05-06T08:18:36.795Z,97705.06
2023-05-06T08:22:40.661Z,97705.44
2023-05-06T08:26:44.083Z,97698.56
2023-05-06T08:30:51.821Z,97709.53
2023-05-06T08:34:55.392Z,97698.63
2023-05-06T08:38:59.036Z,97702.81
2023-05-06T08:43:05.143Z,97699.31
2023-05-06T08:47:10.727Z,97695.06
2023-05-06T08:51:16.985Z,97689.97
2023-05-06T08:55:21.703Z,97692.47
2023-05-06T08:59:26.952Z,97693.19
2023-05-06T09:03:32.784Z,97695.59
2023-05-06T09:07:36.120Z,97698.97
2023-05-06T09:11:40.595Z,97690.75
2023-05-06T09:15:47.385Z,97692.66
2023-05-06T09:19:54.825Z,97696.41
2023-05-06T09:23:58.952Z,97686.38
2023-05-06T09:28:06.594Z,97684.03
2023-05-06T09:32:11.065Z,97690.22
2023-05-06T09:36:16.178Z,97683.81
2023-05-06T09:40:20.356Z,97694.03
2023-05-06T09:44:24.249Z,97682.78
2023-05-06T09:48:31.262Z,97676.38
2023-05-06T09:52:37.501Z,97674.28
2023-05-06T09:56:41.582Z,97670.81
2023-05-06T10:00:47.357Z,97674.31
2023-05-06T10:04:51.761Z,97675.88
2023-05-06T10:08:58.488Z,97673.66
2023-05-06T10:13:04.827Z,97680.19
2023-05-06T10:17:10.084Z,97671.63
2023-05-06T10:21:22.338Z,97664.78
2023-05-06T10:25:36.520Z,97661.41
2023-05-06T10:29:40.705Z,97667.94
2023-05-06T10:33:47.642Z,97655.13
2023-05-06T10:37:54.084Z,97658.25
2023-05-06T10:41:59.048Z,97655.94
2023-05-06T10:46:09.796Z,97647.22
2023-05-06T10:50:23.574Z,97646.72
2023-05-06T10:54:27.726Z,97635.19
2023-05-06T10:58:37.997Z,97631.13
2023-05-06T11:02:46.178Z,97623.50
2023-05-06T11:06:51.641Z,97622.75
2023-05-06T11:10:55.934Z,97625.59
2023-05-06T11:15:21.077Z,97628.00
2023-05-06T11:19:26.814Z,97629.84
2023-05-06T11:24:05.672Z,97620.22
2023-05-06T11:28:10.985Z,97622.59
2023-05-06T11:32:24.344Z,97624.41
2023-05-06T11:36:29.391Z,97630.75
2023-05-06T11:40:32.987Z,97635.13
2023-05-06T11:44:41.291Z,97650.13
2023-05-06T11:48:46.170Z,97651.47
2023-05-06T11:52:51.604Z,97646.97
2023-05-06T11:56:56.899Z,97650.94
2023-05-06T12:01:02.677Z,97648.03
2023-05-06T12:05:10.730Z,97644.69
2023-05-06T12:09:14.789Z,97646.84
2023-05-06T12:13:18.768Z,97654.81
2023-05-06T12:17:22.522Z,97649.97
2023-05-06T12:21:28.538Z,97642.97
2023-05-06T12:25:32.351Z,97644.09
2023-05-06T12:29:35.439Z,97641.34
2023-05-06T12:33:47.269Z,97629.16
2023-05-06T12:37:52.188Z,97627.16
2023-05-06T12:41:56.557Z,97616.94
2023-05-06T12:46:07.509Z,97615.28
2023-05-06T12:50:12.335Z,97610.25
2023-05-06T12:54:32.857Z,97611.84
2023-05-06T12:58:38.366Z,97611.19
2023-05-06T13:02:42.384Z,97601.91
2023-05-06T13:06:45.931Z,97616.22
2023-05-06T13:10:50.772Z,97604.28
2023-05-06T13:14:54.241Z,97598.81
2023-05-06T13:18:58.129Z,97586.94
2023-05-06T13:23:01.739Z,97579.03
2023-05-06T13:27:06.951Z,97587.94
2023-05-06T13:31:10.277Z,97587.72
2023-05-06T13:35:14.435Z,97579.97
2023-05-06T13:39:18.175Z,97578.69
2023-05-06T13:43:25.193Z,97579.78
2023-05-06T13:47:28.704Z,97570.69
2023-05-06T13:51:33.893Z,97569.94
2023-05-06T13:55:37.292Z,97571.53
2023-05-06T13:59:42.541Z,97568.31
2023-05-06T14:03:46.753Z,97569.38
2023-05-06T14:07:50.299Z,97565.13
2023-05-06T14:11:54.082Z,97557.06
2023-05-06T14:15:59.569Z,97551.16
2023-05-06T14:20:06.093Z,97551.97
2023-05-06T14:24:11.031Z,97544.19
2023-05-06T14:28:16.304Z,97549.03
2023-05-06T14:32:21.263Z,97549.53
2023-05-06T14:36:26.639Z,97545.81
2023-05-06T14:40:29.679Z,97550.34
2023-05-06T14:44:33.549Z,97548.53
2023-05-06T14:48:38.152Z,97543.47
2023-05-06T14:52:42.546Z,97544.50
2023-05-06T14:56:49.563Z,97539.94
2023-05-06T15:00:52.792Z,97534.59
2023-05-06T15:04:57.809Z,97538.88
2023-05-06T15:09:01.123Z,97536.50
2023-05-06T15:13:04.632Z,97537.28
2023-05-06T15:17:08.186Z,97534.06
2023-05-06T15:21:14.029Z,97535.66
2023-05-06T15:25:33.524Z,97532.47
2023-05-06T15:29:39.596Z,97532.47
2023-05-06T15:33:43.224Z,97532.44
2023-05-06T15:37:47.929Z,97536.19
2023-05-06T15:41:52.902Z,97534.84
2023-05-06T15:45:56.798Z,97533.53
2023-05-06T15:50:16.519Z,97543.66
2023-05-06T15:54:25.744Z,97532.97
2023-05-06T15:58:28.985Z,97537.28
2023-05-06T16:02:33.246Z,97531.38
2023-05-06T16:06:36.893Z,97531.38
2023-05-06T16:10:42.421Z,97528.91
2023-05-06T16:14:55.248Z,97472.41
2023-05-06T16:18:58.515Z,97525.38
2023-05-06T16:23:01.822Z,97522.19
2023-05-06T16:27:07.268Z,97522.19
2023-05-06T16:31:10.258Z,97522.13
2023-05-06T16:35:13.999Z,97516.16
2023-05-06T16:39:17.264Z,97516.56
2023-05-06T16:43:22.677Z,97520.72
2023-05-06T16:47:26.406Z,97528.16
2023-05-06T16:51:30.526Z,97532.97
2023-05-06T16:55:34.080Z,97526.00
2023-05-06T16:59:40.772Z,97525.47
2023-05-06T17:03:44.311Z,97523.59
2023-05-06T17:07:48.509Z,97535.28
2023-05-06T17:11:53.289Z,97529.63
2023-05-06T17:15:58.245Z,97530.59
2023-05-06T17:20:02.013Z,97538.50
2023-05-06T17:24:06.541Z,97537.22
2023-05-06T17:28:12.436Z,97527.78
2023-05-06T17:32:17.490Z,97522.38
2023-05-06T17:36:24.393Z,97529.19
2023-05-06T17:40:27.327Z,97528.72
2023-05-06T17:44:31.253Z,97527.41
2023-05-06T17:48:35.964Z,97537.91
2023-05-06T17:52:40.398Z,97540.28
2023-05-06T17:56:49.237Z,97538.41
2023-05-06T18:00:53.064Z,97547.19
2023-05-06T18:04:58.265Z,97547.56
2023-05-06T18:09:01.921Z,97554.50
2023-05-06T18:13:05.301Z,97557.41
2023-05-06T18:17:11.304Z,97561.28
2023-05-06T18:21:16.073Z,97569.81
2023-05-06T18:25:19.630Z,97564.38
2023-05-06T18:29:23.229Z,97560.81
2023-05-06T18:33:26.869Z,97560.81
2023-05-06T18:37:32.487Z,97564.19
2023-05-06T18:41:35.605Z,97563.28
2023-05-06T18:45:39.614Z,97567.66
2023-05-06T18:49:43.520Z,97573.66
2023-05-06T18:53:48.150Z,97568.28
2023-05-06T18:57:51.776Z,97582.03
2023-05-06T19:01:55.467Z,97586.56
2023-05-06T19:06:02.654Z,97589.50
2023-05-06T19:10:10.949Z,97584.25
2023-05-06T19:14:14.291Z,97584.94
2023-05-06T19:18:18.169Z,97585.41
2023-05-06T19:22:21.513Z,97584.63
2023-05-06T19:26:27.242Z,97591.75
2023-05-06T19:30:33.849Z,97590.72
2023-05-06T19:34:37.705Z,97590.72
2023-05-06T19:38:40.963Z,97598.78
2023-05-06T19:42:46.494Z,97594.94
2023-05-06T19:46:51.556Z,97596.78
2023-05-06T19:50:59.296Z,97598.00
2023-05-06T19:55:14.625Z,97601.28
2023-05-06T19:59:19.199Z,97606.56
2023-05-06T20:03:29.063Z,97597.66
2023-05-06T20:07:32.586Z,97610.69
2023-05-06T20:11:38.192Z,97604.22
2023-05-06T20:15:45.537Z,97602.63
2023-05-06T20:19:53.326Z,97609.53
2023-05-06T20:23:57.030Z,97601.84
2023-05-06T20:28:03.631Z,97601.84
2023-05-06T20:32:11.172Z,97599.81
2023-05-06T20:36:17.912Z,97596.78
2023-05-06T20:40:22.117Z,97604.84
2023-05-06T20:44:26.144Z,97601.81
2023-05-06T20:48:35.995Z,97602.41
2023-05-06T20:52:39.862Z,97608.47
2023-05-06T20:56:43.591Z,97609.31
2023-05-06T21:00:46.862Z,97610.34
2023-05-06T21:04:53.835Z,97604.44
2023-05-06T21:08:58.656Z,97613.78
2023-05-06T21:13:02.388Z,97616.84
2023-05-06T21:17:06.310Z,97617.47
2023-05-06T21:21:10.977Z,97614.88
2023-05-06T21:25:14.621Z,97612.41
2023-05-06T21:29:18.251Z,97611.22
2023-05-06T21:33:21.928Z,97608.41
2023-05-06T21:37:26.409Z,97615.31
2023-05-06T21:41:30.772Z,97619.56
2023-05-06T21:45:34.029Z,97618.19
2023-05-06T21:49:37.344Z,97608.03
2023-05-06T21:53:42.279Z,97616.97
2023-05-06T21:57:47.565Z,97620.81
2023-05-06T22:01:50.778Z,97623.66
2023-05-06T22:05:54.541Z,97626.81
2023-05-06T22:09:59.070Z,97633.31
2023-05-06T22:14:02.993Z,97632.25
2023-05-06T22:18:08.732Z,97631.81
2023-05-06T22:22:14.163Z,97629.34
2023-05-06T22:26:19.197Z,97629.53
2023-05-06T22:30:23.316Z,97626.06
2023-05-06T22:34:26.295Z,97623.22
2023-05-06T22:38:30.189Z,97629.50
2023-05-06T22:42:35.056Z,97622.22
2023-05-06T22:46:39.082Z,97616.97
2023-05-06T22:50:42.993Z,97625.44
2023-05-06T22:54:46.392Z,97623.88
2023-05-06T22:58:50.908Z,97629.34
2023-05-06T23:02:54.820Z,97629.16
2023-05-06T23:06:58.752Z,97634.22
2023-05-06T23:11:02.635Z,97623.69
2023-05-06T23:15:09.161Z,97619.84
2023-05-06T23:19:12.785Z,97616.44
2023-05-06T23:23:16.103Z,97617.22
2023-05-06T23:27:19.666Z,97611.16
2023-05-06T23:31:24.817Z,97608.72
2023-05-06T23:35:28.331Z,97604.84
2023-05-06T23:39:31.446Z,97605.47
2023-05-06T23:43:34.938Z,97603.00
2023-05-06T23:47:39.953Z,97600.56
2023-05-06T23:51:43.388Z,97604.53
2023-05-06T23:55:46.557Z,97606.88
2023-05-06T23:59:49.907Z,97610.88
